Terminal Aerodrome Forecast
Issued by NWS Des Moines, IA

Home | Current Version | Previous Version | Text Only | Print | Product List | Glossary On
Versions: 1 2 3 4 5 6 7 8 9 10 11 12 13 14 15
000
FTUS43 KDMX 200538
TAFDSM
TAF
KDSM 200538Z 2006/2106 15009KT P6SM BKN250
     FM201200 16008KT P6SM OVC013
     FM201400 16010KT 2SM BR VCTS OVC010CB
     FM201700 19012G17KT 5SM BR VCSH OVC010
     FM202000 22013G18KT P6SM SCT009 BKN030
     FM210200 30012KT P6SM SCT050=

USA.gov is the U.S. government's official web portal to all federal, state and local government web resources and services.